sensor_id;sensor_type;location;lat;lon;timestamp;P1;durP1;ratioP1;P2;durP2;ratioP2
18716;SDS011;9487;50.892;6.906;2024-02-14T00:02:20;2.10;;;1.20;;
18716;SDS011;9487;50.892;6.906;2024-02-14T00:04:47;3.10;;;1.30;;
18716;SDS011;9487;50.892;6.906;2024-02-14T00:07:14;3.67;;;1.20;;
18716;SDS011;9487;50.892;6.906;2024-02-14T00:09:41;2.37;;;1.50;;
18716;SDS011;9487;50.892;6.906;2024-02-14T00:12:09;2.97;;;1.20;;
18716;SDS011;9487;50.892;6.906;2024-02-14T00:14:36;2.20;;;1.33;;
18716;SDS011;9487;50.892;6.906;2024-02-14T00:17:03;1.67;;;1.20;;
18716;SDS011;9487;50.892;6.906;2024-02-14T00:19:30;1.87;;;1.00;;
18716;SDS011;9487;50.892;6.906;2024-02-14T00:21:57;1.87;;;1.00;;
18716;SDS011;9487;50.892;6.906;2024-02-14T00:24:25;1.83;;;1.27;;
18716;SDS011;9487;50.892;6.906;2024-02-14T00:26:53;1.33;;;0.87;;
18716;SDS011;9487;50.892;6.906;2024-02-14T00:29:23;2.50;;;1.10;;
18716;SDS011;9487;50.892;6.906;2024-02-14T00:31:49;2.33;;;0.90;;
18716;SDS011;9487;50.892;6.906;2024-02-14T00:34:16;3.10;;;1.20;;
18716;SDS011;9487;50.892;6.906;2024-02-14T00:36:43;2.70;;;1.10;;
18716;SDS011;9487;50.892;6.906;2024-02-14T00:39:11;2.00;;;1.10;;
18716;SDS011;9487;50.892;6.906;2024-02-14T00:41:38;2.30;;;1.10;;
18716;SDS011;9487;50.892;6.906;2024-02-14T00:44:05;1.30;;;1.20;;
18716;SDS011;9487;50.892;6.906;2024-02-14T00:46:34;2.17;;;1.23;;
18716;SDS011;9487;50.892;6.906;2024-02-14T00:49:01;1.33;;;0.90;;
18716;SDS011;9487;50.892;6.906;2024-02-14T00:51:28;1.70;;;1.00;;
18716;SDS011;9487;50.892;6.906;2024-02-14T00:53:54;1.63;;;1.10;;
18716;SDS011;9487;50.892;6.906;2024-02-14T00:56:21;2.60;;;1.10;;
18716;SDS011;9487;50.892;6.906;2024-02-14T00:58:49;1.10;;;0.90;;
18716;SDS011;9487;50.892;6.906;2024-02-14T01:01:16;1.60;;;1.23;;
18716;SDS011;9487;50.892;6.906;2024-02-14T01:03:44;1.80;;;1.00;;
18716;SDS011;9487;50.892;6.906;2024-02-14T01:06:11;1.97;;;1.00;;
18716;SDS011;9487;50.892;6.906;2024-02-14T01:08:39;2.63;;;1.20;;
18716;SDS011;9487;50.892;6.906;2024-02-14T01:11:06;1.93;;;1.10;;
18716;SDS011;9487;50.892;6.906;2024-02-14T01:13:33;1.43;;;1.00;;
18716;SDS011;9487;50.892;6.906;2024-02-14T01:16:00;2.00;;;0.87;;
18716;SDS011;9487;50.892;6.906;2024-02-14T01:18:27;2.43;;;1.07;;
18716;SDS011;9487;50.892;6.906;2024-02-14T01:20:55;1.47;;;1.03;;
18716;SDS011;9487;50.892;6.906;2024-02-14T01:23:23;2.40;;;0.97;;
18716;SDS011;9487;50.892;6.906;2024-02-14T01:25:50;2.23;;;1.00;;
18716;SDS011;9487;50.892;6.906;2024-02-14T01:28:16;1.53;;;1.00;;
18716;SDS011;9487;50.892;6.906;2024-02-14T01:30:43;2.37;;;1.10;;
18716;SDS011;9487;50.892;6.906;2024-02-14T01:33:10;3.83;;;1.10;;
18716;SDS011;9487;50.892;6.906;2024-02-14T01:35:37;1.37;;;0.80;;
18716;SDS011;9487;50.892;6.906;2024-02-14T01:38:05;1.30;;;0.90;;
18716;SDS011;9487;50.892;6.906;2024-02-14T01:40:32;1.70;;;1.00;;
18716;SDS011;9487;50.892;6.906;2024-02-14T01:42:59;0.97;;;0.80;;
18716;SDS011;9487;50.892;6.906;2024-02-14T01:45:26;1.17;;;0.80;;
18716;SDS011;9487;50.892;6.906;2024-02-14T01:47:53;1.63;;;0.80;;
18716;SDS011;9487;50.892;6.906;2024-02-14T01:50:20;2.20;;;0.83;;
18716;SDS011;9487;50.892;6.906;2024-02-14T01:52:53;0.97;;;0.70;;
18716;SDS011;9487;50.892;6.906;2024-02-14T01:55:23;1.60;;;0.80;;
18716;SDS011;9487;50.892;6.906;2024-02-14T01:57:51;1.97;;;1.13;;
18716;SDS011;9487;50.892;6.906;2024-02-14T02:00:18;1.50;;;0.90;;
18716;SDS011;9487;50.892;6.906;2024-02-14T02:02:45;1.87;;;0.80;;
18716;SDS011;9487;50.892;6.906;2024-02-14T02:05:12;0.53;;;0.53;;
18716;SDS011;9487;50.892;6.906;2024-02-14T02:07:40;1.17;;;0.83;;
18716;SDS011;9487;50.892;6.906;2024-02-14T02:10:08;1.20;;;0.67;;
18716;SDS011;9487;50.892;6.906;2024-02-14T02:12:37;1.73;;;0.70;;
18716;SDS011;9487;50.892;6.906;2024-02-14T02:15:05;1.80;;;0.80;;
18716;SDS011;9487;50.892;6.906;2024-02-14T02:17:36;1.00;;;0.80;;
18716;SDS011;9487;50.892;6.906;2024-02-14T02:20:03;0.87;;;0.60;;
18716;SDS011;9487;50.892;6.906;2024-02-14T02:22:32;0.87;;;0.70;;
18716;SDS011;9487;50.892;6.906;2024-02-14T02:25:01;0.90;;;0.60;;
18716;SDS011;9487;50.892;6.906;2024-02-14T02:27:31;1.50;;;0.70;;
18716;SDS011;9487;50.892;6.906;2024-02-14T02:30:00;1.03;;;0.80;;
18716;SDS011;9487;50.892;6.906;2024-02-14T02:32:29;1.77;;;0.83;;
18716;SDS011;9487;50.892;6.906;2024-02-14T02:34:56;1.20;;;0.90;;
18716;SDS011;9487;50.892;6.906;2024-02-14T02:37:23;1.23;;;0.70;;
18716;SDS011;9487;50.892;6.906;2024-02-14T02:39:50;1.20;;;0.90;;
18716;SDS011;9487;50.892;6.906;2024-02-14T02:42:19;0.97;;;0.70;;
18716;SDS011;9487;50.892;6.906;2024-02-14T02:44:46;1.47;;;0.77;;
18716;SDS011;9487;50.892;6.906;2024-02-14T02:47:13;1.63;;;1.17;;
18716;SDS011;9487;50.892;6.906;2024-02-14T02:49:41;1.17;;;0.93;;
18716;SDS011;9487;50.892;6.906;2024-02-14T02:52:09;2.33;;;0.80;;
18716;SDS011;9487;50.892;6.906;2024-02-14T02:54:36;1.10;;;0.77;;
18716;SDS011;9487;50.892;6.906;2024-02-14T02:57:05;2.20;;;1.00;;
18716;SDS011;9487;50.892;6.906;2024-02-14T02:59:34;1.10;;;0.90;;
18716;SDS011;9487;50.892;6.906;2024-02-14T03:02:01;0.87;;;0.80;;
18716;SDS011;9487;50.892;6.906;2024-02-14T03:04:28;1.77;;;1.10;;
18716;SDS011;9487;50.892;6.906;2024-02-14T03:06:56;1.83;;;1.10;;
18716;SDS011;9487;50.892;6.906;2024-02-14T03:09:24;1.00;;;0.80;;
18716;SDS011;9487;50.892;6.906;2024-02-14T03:11:51;1.10;;;1.00;;
18716;SDS011;9487;50.892;6.906;2024-02-14T03:14:22;1.37;;;0.90;;
18716;SDS011;9487;50.892;6.906;2024-02-14T03:16:50;1.77;;;1.07;;
18716;SDS011;9487;50.892;6.906;2024-02-14T03:19:17;1.23;;;1.00;;
18716;SDS011;9487;50.892;6.906;2024-02-14T03:21:44;1.63;;;1.10;;
18716;SDS011;9487;50.892;6.906;2024-02-14T03:24:11;1.97;;;1.10;;
18716;SDS011;9487;50.892;6.906;2024-02-14T03:26:39;1.80;;;0.97;;
18716;SDS011;9487;50.892;6.906;2024-02-14T03:29:07;1.47;;;0.97;;
18716;SDS011;9487;50.892;6.906;2024-02-14T03:31:34;2.73;;;0.90;;
18716;SDS011;9487;50.892;6.906;2024-02-14T03:34:02;0.93;;;0.87;;
18716;SDS011;9487;50.892;6.906;2024-02-14T03:36:29;1.63;;;0.63;;
18716;SDS011;9487;50.892;6.906;2024-02-14T03:38:56;0.80;;;0.70;;
18716;SDS011;9487;50.892;6.906;2024-02-14T03:41:23;1.53;;;1.10;;
18716;SDS011;9487;50.892;6.906;2024-02-14T03:43:50;1.73;;;0.90;;
18716;SDS011;9487;50.892;6.906;2024-02-14T03:46:19;0.90;;;0.73;;
18716;SDS011;9487;50.892;6.906;2024-02-14T03:48:47;0.90;;;0.70;;
18716;SDS011;9487;50.892;6.906;2024-02-14T03:51:15;1.20;;;0.90;;
18716;SDS011;9487;50.892;6.906;2024-02-14T03:53:42;1.70;;;0.87;;
18716;SDS011;9487;50.892;6.906;2024-02-14T03:56:09;0.80;;;0.77;;
18716;SDS011;9487;50.892;6.906;2024-02-14T03:58:37;0.87;;;0.80;;
18716;SDS011;9487;50.892;6.906;2024-02-14T04:01:04;1.37;;;0.90;;
18716;SDS011;9487;50.892;6.906;2024-02-14T04:03:31;1.10;;;0.97;;
18716;SDS011;9487;50.892;6.906;2024-02-14T04:06:19;1.60;;;0.90;;
18716;SDS011;9487;50.892;6.906;2024-02-14T04:08:47;2.00;;;0.90;;
18716;SDS011;9487;50.892;6.906;2024-02-14T04:11:15;1.40;;;0.90;;
18716;SDS011;9487;50.892;6.906;2024-02-14T04:13:42;1.23;;;1.03;;
18716;SDS011;9487;50.892;6.906;2024-02-14T04:16:08;0.93;;;0.80;;
18716;SDS011;9487;50.892;6.906;2024-02-14T04:18:35;2.30;;;0.80;;
18716;SDS011;9487;50.892;6.906;2024-02-14T04:21:02;0.80;;;0.73;;
18716;SDS011;9487;50.892;6.906;2024-02-14T04:23:31;1.50;;;0.90;;
18716;SDS011;9487;50.892;6.906;2024-02-14T04:25:57;1.13;;;0.97;;
18716;SDS011;9487;50.892;6.906;2024-02-14T04:28:24;1.10;;;0.80;;
18716;SDS011;9487;50.892;6.906;2024-02-14T04:30:51;1.83;;;1.20;;
18716;SDS011;9487;50.892;6.906;2024-02-14T04:33:18;1.90;;;1.10;;
18716;SDS011;9487;50.892;6.906;2024-02-14T04:35:46;1.97;;;1.10;;
18716;SDS011;9487;50.892;6.906;2024-02-14T04:38:13;2.00;;;1.40;;
18716;SDS011;9487;50.892;6.906;2024-02-14T04:40:42;1.40;;;1.30;;
18716;SDS011;9487;50.892;6.906;2024-02-14T04:43:09;2.27;;;1.50;;
18716;SDS011;9487;50.892;6.906;2024-02-14T04:45:37;1.80;;;1.10;;
18716;SDS011;9487;50.892;6.906;2024-02-14T04:48:04;1.20;;;1.10;;
18716;SDS011;9487;50.892;6.906;2024-02-14T04:50:32;2.23;;;1.43;;
18716;SDS011;9487;50.892;6.906;2024-02-14T04:52:59;2.30;;;1.60;;
18716;SDS011;9487;50.892;6.906;2024-02-14T04:55:26;2.60;;;1.37;;
18716;SDS011;9487;50.892;6.906;2024-02-14T04:57:55;1.57;;;1.40;;
18716;SDS011;9487;50.892;6.906;2024-02-14T05:00:22;3.07;;;1.77;;
18716;SDS011;9487;50.892;6.906;2024-02-14T05:02:49;2.60;;;1.70;;
18716;SDS011;9487;50.892;6.906;2024-02-14T05:05:16;2.00;;;1.40;;
18716;SDS011;9487;50.892;6.906;2024-02-14T05:07:43;2.20;;;1.30;;
18716;SDS011;9487;50.892;6.906;2024-02-14T05:10:10;4.33;;;1.40;;
18716;SDS011;9487;50.892;6.906;2024-02-14T05:12:37;2.30;;;1.10;;
18716;SDS011;9487;50.892;6.906;2024-02-14T05:15:05;1.20;;;1.10;;
18716;SDS011;9487;50.892;6.906;2024-02-14T05:17:33;1.27;;;1.00;;
18716;SDS011;9487;50.892;6.906;2024-02-14T05:20:00;1.50;;;1.10;;
18716;SDS011;9487;50.892;6.906;2024-02-14T05:22:27;1.23;;;1.00;;
18716;SDS011;9487;50.892;6.906;2024-02-14T05:24:54;1.27;;;1.00;;
18716;SDS011;9487;50.892;6.906;2024-02-14T05:27:21;2.63;;;1.20;;
18716;SDS011;9487;50.892;6.906;2024-02-14T05:29:47;1.40;;;1.10;;
18716;SDS011;9487;50.892;6.906;2024-02-14T05:32:16;2.33;;;1.40;;
18716;SDS011;9487;50.892;6.906;2024-02-14T05:34:42;3.60;;;1.87;;
18716;SDS011;9487;50.892;6.906;2024-02-14T05:37:09;1.57;;;1.03;;
18716;SDS011;9487;50.892;6.906;2024-02-14T05:39:36;1.63;;;1.47;;
18716;SDS011;9487;50.892;6.906;2024-02-14T05:42:03;2.30;;;1.37;;
18716;SDS011;9487;50.892;6.906;2024-02-14T05:44:30;1.57;;;1.10;;
18716;SDS011;9487;50.892;6.906;2024-02-14T05:46:57;1.73;;;1.10;;
18716;SDS011;9487;50.892;6.906;2024-02-14T05:49:26;2.03;;;1.37;;
18716;SDS011;9487;50.892;6.906;2024-02-14T05:51:53;2.10;;;1.43;;
18716;SDS011;9487;50.892;6.906;2024-02-14T05:54:20;3.53;;;1.70;;
18716;SDS011;9487;50.892;6.906;2024-02-14T05:56:47;3.67;;;1.87;;
18716;SDS011;9487;50.892;6.906;2024-02-14T05:59:14;3.67;;;2.57;;
18716;SDS011;9487;50.892;6.906;2024-02-14T06:01:40;4.60;;;2.37;;
18716;SDS011;9487;50.892;6.906;2024-02-14T06:04:07;5.37;;;3.53;;
18716;SDS011;9487;50.892;6.906;2024-02-14T06:06:35;5.77;;;3.33;;
18716;SDS011;9487;50.892;6.906;2024-02-14T06:09:03;4.70;;;2.80;;
18716;SDS011;9487;50.892;6.906;2024-02-14T06:11:34;5.20;;;3.30;;
18716;SDS011;9487;50.892;6.906;2024-02-14T06:14:04;3.83;;;2.70;;
18716;SDS011;9487;50.892;6.906;2024-02-14T06:16:30;3.60;;;2.70;;
18716;SDS011;9487;50.892;6.906;2024-02-14T06:18:59;5.17;;;3.47;;
18716;SDS011;9487;50.892;6.906;2024-02-14T06:21:26;3.80;;;2.43;;
18716;SDS011;9487;50.892;6.906;2024-02-14T06:23:54;3.80;;;2.77;;
18716;SDS011;9487;50.892;6.906;2024-02-14T06:26:23;4.23;;;3.00;;
18716;SDS011;9487;50.892;6.906;2024-02-14T06:28:50;3.53;;;2.60;;
18716;SDS011;9487;50.892;6.906;2024-02-14T06:31:19;2.93;;;2.40;;
18716;SDS011;9487;50.892;6.906;2024-02-14T06:33:46;5.13;;;3.30;;
18716;SDS011;9487;50.892;6.906;2024-02-14T06:36:13;3.67;;;2.60;;
18716;SDS011;9487;50.892;6.906;2024-02-14T06:38:40;5.40;;;2.73;;
18716;SDS011;9487;50.892;6.906;2024-02-14T06:41:08;2.40;;;2.20;;
18716;SDS011;9487;50.892;6.906;2024-02-14T06:43:35;2.83;;;2.07;;
18716;SDS011;9487;50.892;6.906;2024-02-14T06:46:04;2.37;;;1.67;;
18716;SDS011;9487;50.892;6.906;2024-02-14T06:48:31;2.07;;;1.50;;
18716;SDS011;9487;50.892;6.906;2024-02-14T06:50:59;3.03;;;1.90;;
18716;SDS011;9487;50.892;6.906;2024-02-14T06:53:25;2.53;;;1.37;;
18716;SDS011;9487;50.892;6.906;2024-02-14T06:55:52;2.57;;;1.50;;
18716;SDS011;9487;50.892;6.906;2024-02-14T06:58:20;1.60;;;1.30;;
18716;SDS011;9487;50.892;6.906;2024-02-14T07:00:47;2.33;;;1.50;;
18716;SDS011;9487;50.892;6.906;2024-02-14T07:03:14;3.60;;;1.80;;
18716;SDS011;9487;50.892;6.906;2024-02-14T07:05:41;2.73;;;1.93;;
18716;SDS011;9487;50.892;6.906;2024-02-14T07:08:08;3.80;;;1.80;;
18716;SDS011;9487;50.892;6.906;2024-02-14T07:10:35;1.40;;;1.07;;
18716;SDS011;9487;50.892;6.906;2024-02-14T07:13:02;1.47;;;1.20;;
18716;SDS011;9487;50.892;6.906;2024-02-14T07:15:30;2.43;;;0.93;;
18716;SDS011;9487;50.892;6.906;2024-02-14T07:17:57;3.00;;;1.03;;
18716;SDS011;9487;50.892;6.906;2024-02-14T07:20:24;1.90;;;1.13;;
18716;SDS011;9487;50.892;6.906;2024-02-14T07:22:52;2.37;;;1.13;;
18716;SDS011;9487;50.892;6.906;2024-02-14T07:25:21;1.47;;;1.00;;
18716;SDS011;9487;50.892;6.906;2024-02-14T07:27:48;1.57;;;0.80;;
18716;SDS011;9487;50.892;6.906;2024-02-14T07:30:15;1.93;;;0.90;;
18716;SDS011;9487;50.892;6.906;2024-02-14T07:32:44;1.33;;;0.93;;
18716;SDS011;9487;50.892;6.906;2024-02-14T07:35:11;0.97;;;0.80;;
18716;SDS011;9487;50.892;6.906;2024-02-14T07:37:38;0.93;;;0.80;;
18716;SDS011;9487;50.892;6.906;2024-02-14T07:40:05;1.67;;;0.90;;
18716;SDS011;9487;50.892;6.906;2024-02-14T07:42:33;1.47;;;0.97;;
18716;SDS011;9487;50.892;6.906;2024-02-14T07:45:00;1.53;;;1.00;;
18716;SDS011;9487;50.892;6.906;2024-02-14T07:47:28;1.37;;;1.00;;
18716;SDS011;9487;50.892;6.906;2024-02-14T07:49:56;1.07;;;0.97;;
18716;SDS011;9487;50.892;6.906;2024-02-14T07:52:23;0.63;;;0.63;;
18716;SDS011;9487;50.892;6.906;2024-02-14T07:54:51;1.07;;;0.90;;
18716;SDS011;9487;50.892;6.906;2024-02-14T07:57:18;0.97;;;0.93;;
18716;SDS011;9487;50.892;6.906;2024-02-14T07:59:46;2.10;;;1.00;;
18716;SDS011;9487;50.892;6.906;2024-02-14T08:02:13;1.20;;;1.00;;
18716;SDS011;9487;50.892;6.906;2024-02-14T08:04:40;1.83;;;1.07;;
18716;SDS011;9487;50.892;6.906;2024-02-14T08:07:08;1.57;;;0.90;;
18716;SDS011;9487;50.892;6.906;2024-02-14T08:09:35;2.30;;;1.07;;
18716;SDS011;9487;50.892;6.906;2024-02-14T08:12:04;1.60;;;1.00;;
18716;SDS011;9487;50.892;6.906;2024-02-14T08:14:31;2.00;;;1.27;;
18716;SDS011;9487;50.892;6.906;2024-02-14T08:16:58;2.13;;;1.10;;
18716;SDS011;9487;50.892;6.906;2024-02-14T08:19:25;1.30;;;1.20;;
18716;SDS011;9487;50.892;6.906;2024-02-14T08:21:52;2.57;;;1.30;;
18716;SDS011;9487;50.892;6.906;2024-02-14T08:24:24;2.90;;;2.07;;
18716;SDS011;9487;50.892;6.906;2024-02-14T08:26:51;8.33;;;1.93;;
18716;SDS011;9487;50.892;6.906;2024-02-14T08:29:18;4.10;;;1.80;;
18716;SDS011;9487;50.892;6.906;2024-02-14T08:31:46;7.37;;;2.50;;
18716;SDS011;9487;50.892;6.906;2024-02-14T08:34:13;9.40;;;1.77;;
18716;SDS011;9487;50.892;6.906;2024-02-14T08:36:40;2.70;;;1.23;;
18716;SDS011;9487;50.892;6.906;2024-02-14T08:39:07;6.60;;;1.67;;
18716;SDS011;9487;50.892;6.906;2024-02-14T08:41:36;5.67;;;1.70;;
18716;SDS011;9487;50.892;6.906;2024-02-14T08:44:03;12.97;;;3.43;;
18716;SDS011;9487;50.892;6.906;2024-02-14T08:46:30;6.63;;;3.13;;
18716;SDS011;9487;50.892;6.906;2024-02-14T08:48:59;2.97;;;1.60;;
18716;SDS011;9487;50.892;6.906;2024-02-14T08:51:27;1.20;;;0.90;;
18716;SDS011;9487;50.892;6.906;2024-02-14T08:53:54;2.13;;;1.30;;
18716;SDS011;9487;50.892;6.906;2024-02-14T08:56:24;2.87;;;1.10;;
18716;SDS011;9487;50.892;6.906;2024-02-14T08:58:53;1.97;;;1.00;;
18716;SDS011;9487;50.892;6.906;2024-02-14T09:01:19;1.37;;;1.00;;
18716;SDS011;9487;50.892;6.906;2024-02-14T09:03:46;3.23;;;1.00;;
18716;SDS011;9487;50.892;6.906;2024-02-14T09:06:13;2.27;;;1.00;;
18716;SDS011;9487;50.892;6.906;2024-02-14T09:08:41;2.67;;;0.90;;
18716;SDS011;9487;50.892;6.906;2024-02-14T09:11:09;1.13;;;0.93;;
18716;SDS011;9487;50.892;6.906;2024-02-14T09:13:37;1.87;;;1.10;;
18716;SDS011;9487;50.892;6.906;2024-02-14T09:16:06;2.83;;;1.10;;
18716;SDS011;9487;50.892;6.906;2024-02-14T09:18:33;2.30;;;1.10;;
18716;SDS011;9487;50.892;6.906;2024-02-14T09:21:00;1.90;;;0.90;;
18716;SDS011;9487;50.892;6.906;2024-02-14T09:23:28;2.47;;;1.10;;
18716;SDS011;9487;50.892;6.906;2024-02-14T09:25:56;3.47;;;1.10;;
18716;SDS011;9487;50.892;6.906;2024-02-14T09:28:23;1.57;;;1.07;;
18716;SDS011;9487;50.892;6.906;2024-02-14T09:30:50;3.30;;;1.27;;
18716;SDS011;9487;50.892;6.906;2024-02-14T09:33:18;9.57;;;2.00;;
18716;SDS011;9487;50.892;6.906;2024-02-14T09:35:45;7.77;;;1.20;;
18716;SDS011;9487;50.892;6.906;2024-02-14T09:38:13;8.70;;;1.57;;
18716;SDS011;9487;50.892;6.906;2024-02-14T09:40:40;1.77;;;1.00;;
18716;SDS011;9487;50.892;6.906;2024-02-14T09:43:09;2.47;;;0.90;;
18716;SDS011;9487;50.892;6.906;2024-02-14T09:45:44;2.27;;;0.93;;
18716;SDS011;9487;50.892;6.906;2024-02-14T09:48:12;3.43;;;1.00;;
18716;SDS011;9487;50.892;6.906;2024-02-14T09:50:42;6.90;;;1.40;;
18716;SDS011;9487;50.892;6.906;2024-02-14T09:53:10;8.50;;;1.30;;
18716;SDS011;9487;50.892;6.906;2024-02-14T09:55:38;8.03;;;1.40;;
18716;SDS011;9487;50.892;6.906;2024-02-14T09:58:06;2.83;;;0.97;;
18716;SDS011;9487;50.892;6.906;2024-02-14T10:00:33;6.70;;;1.40;;
18716;SDS011;9487;50.892;6.906;2024-02-14T10:09:46;2.73;;;0.90;;
18716;SDS011;9487;50.892;6.906;2024-02-14T10:12:13;1.87;;;0.80;;
18716;SDS011;9487;50.892;6.906;2024-02-14T10:14:40;5.13;;;1.27;;
18716;SDS011;9487;50.892;6.906;2024-02-14T10:17:07;1.93;;;0.97;;
18716;SDS011;9487;50.892;6.906;2024-02-14T10:19:35;5.00;;;1.00;;
18716;SDS011;9487;50.892;6.906;2024-02-14T10:22:01;2.07;;;0.70;;
18716;SDS011;9487;50.892;6.906;2024-02-14T10:24:30;1.97;;;0.87;;
18716;SDS011;9487;50.892;6.906;2024-02-14T10:26:59;2.97;;;1.03;;
18716;SDS011;9487;50.892;6.906;2024-02-14T10:29:27;2.23;;;0.90;;
18716;SDS011;9487;50.892;6.906;2024-02-14T10:31:54;1.90;;;1.00;;
18716;SDS011;9487;50.892;6.906;2024-02-14T10:34:24;3.80;;;0.97;;
18716;SDS011;9487;50.892;6.906;2024-02-14T10:36:52;2.53;;;1.00;;
18716;SDS011;9487;50.892;6.906;2024-02-14T10:39:19;2.03;;;1.00;;
18716;SDS011;9487;50.892;6.906;2024-02-14T10:41:47;3.50;;;1.00;;
18716;SDS011;9487;50.892;6.906;2024-02-14T10:44:16;2.43;;;0.90;;
18716;SDS011;9487;50.892;6.906;2024-02-14T10:46:44;2.43;;;0.80;;
18716;SDS011;9487;50.892;6.906;2024-02-14T10:49:12;2.90;;;0.90;;
18716;SDS011;9487;50.892;6.906;2024-02-14T10:51:42;4.57;;;1.13;;
18716;SDS011;9487;50.892;6.906;2024-02-14T10:54:13;6.40;;;1.27;;
18716;SDS011;9487;50.892;6.906;2024-02-14T10:56:42;2.83;;;1.17;;
18716;SDS011;9487;50.892;6.906;2024-02-14T10:59:16;3.97;;;1.47;;
18716;SDS011;9487;50.892;6.906;2024-02-14T11:01:45;5.00;;;1.20;;
18716;SDS011;9487;50.892;6.906;2024-02-14T11:04:13;4.10;;;1.63;;
18716;SDS011;9487;50.892;6.906;2024-02-14T11:06:44;2.87;;;1.03;;
18716;SDS011;9487;50.892;6.906;2024-02-14T11:09:12;2.53;;;1.07;;
18716;SDS011;9487;50.892;6.906;2024-02-14T11:11:40;2.10;;;0.87;;
18716;SDS011;9487;50.892;6.906;2024-02-14T11:14:09;2.33;;;0.97;;
18716;SDS011;9487;50.892;6.906;2024-02-14T11:16:39;7.30;;;1.27;;
18716;SDS011;9487;50.892;6.906;2024-02-14T11:19:08;2.47;;;1.10;;
18716;SDS011;9487;50.892;6.906;2024-02-14T11:21:35;2.10;;;1.00;;
18716;SDS011;9487;50.892;6.906;2024-02-14T11:24:06;3.13;;;1.07;;
18716;SDS011;9487;50.892;6.906;2024-02-14T11:26:38;3.23;;;1.20;;
18716;SDS011;9487;50.892;6.906;2024-02-14T11:29:05;5.50;;;1.10;;
18716;SDS011;9487;50.892;6.906;2024-02-14T11:31:32;3.33;;;1.20;;
18716;SDS011;9487;50.892;6.906;2024-02-14T11:34:03;10.60;;;1.67;;
18716;SDS011;9487;50.892;6.906;2024-02-14T11:36:31;4.80;;;1.47;;
18716;SDS011;9487;50.892;6.906;2024-02-14T11:39:01;2.63;;;0.70;;
18716;SDS011;9487;50.892;6.906;2024-02-14T11:41:29;2.93;;;0.80;;
18716;SDS011;9487;50.892;6.906;2024-02-14T11:43:55;2.13;;;0.70;;
18716;SDS011;9487;50.892;6.906;2024-02-14T11:46:27;2.13;;;0.70;;
18716;SDS011;9487;50.892;6.906;2024-02-14T11:48:56;1.90;;;0.70;;
18716;SDS011;9487;50.892;6.906;2024-02-14T11:51:25;1.53;;;0.80;;
18716;SDS011;9487;50.892;6.906;2024-02-14T11:53:52;1.47;;;0.67;;
18716;SDS011;9487;50.892;6.906;2024-02-14T11:56:20;1.00;;;0.70;;
18716;SDS011;9487;50.892;6.906;2024-02-14T11:58:47;2.17;;;0.80;;
18716;SDS011;9487;50.892;6.906;2024-02-14T12:01:16;1.43;;;0.50;;
18716;SDS011;9487;50.892;6.906;2024-02-14T12:03:43;1.17;;;0.53;;
18716;SDS011;9487;50.892;6.906;2024-02-14T12:06:10;2.00;;;0.63;;
18716;SDS011;9487;50.892;6.906;2024-02-14T12:08:39;1.67;;;0.50;;
18716;SDS011;9487;50.892;6.906;2024-02-14T12:11:06;3.23;;;0.60;;
18716;SDS011;9487;50.892;6.906;2024-02-14T12:13:33;0.70;;;0.50;;
18716;SDS011;9487;50.892;6.906;2024-02-14T12:16:03;1.00;;;0.80;;
18716;SDS011;9487;50.892;6.906;2024-02-14T12:18:32;1.67;;;0.50;;
18716;SDS011;9487;50.892;6.906;2024-02-14T12:21:06;1.23;;;0.53;;
18716;SDS011;9487;50.892;6.906;2024-02-14T12:23:33;1.87;;;0.70;;
18716;SDS011;9487;50.892;6.906;2024-02-14T12:26:02;0.80;;;0.40;;
18716;SDS011;9487;50.892;6.906;2024-02-14T12:28:30;0.80;;;0.50;;
18716;SDS011;9487;50.892;6.906;2024-02-14T12:30:57;1.70;;;0.60;;
18716;SDS011;9487;50.892;6.906;2024-02-14T12:33:25;0.70;;;0.50;;
18716;SDS011;9487;50.892;6.906;2024-02-14T12:35:53;0.90;;;0.60;;
18716;SDS011;9487;50.892;6.906;2024-02-14T12:38:21;0.90;;;0.60;;
18716;SDS011;9487;50.892;6.906;2024-02-14T12:40:49;1.43;;;0.50;;
18716;SDS011;9487;50.892;6.906;2024-02-14T12:43:18;0.40;;;0.40;;
18716;SDS011;9487;50.892;6.906;2024-02-14T12:45:44;1.63;;;0.60;;
18716;SDS011;9487;50.892;6.906;2024-02-14T12:48:12;0.90;;;0.50;;
18716;SDS011;9487;50.892;6.906;2024-02-14T12:50:40;3.87;;;0.60;;
18716;SDS011;9487;50.892;6.906;2024-02-14T12:53:13;1.10;;;0.70;;
18716;SDS011;9487;50.892;6.906;2024-02-14T12:55:40;0.87;;;0.57;;
18716;SDS011;9487;50.892;6.906;2024-02-14T12:58:07;3.70;;;0.83;;
18716;SDS011;9487;50.892;6.906;2024-02-14T13:00:36;1.30;;;0.60;;
18716;SDS011;9487;50.892;6.906;2024-02-14T13:03:03;0.80;;;0.40;;
18716;SDS011;9487;50.892;6.906;2024-02-14T13:05:30;0.73;;;0.50;;
18716;SDS011;9487;50.892;6.906;2024-02-14T13:07:57;1.17;;;0.63;;
18716;SDS011;9487;50.892;6.906;2024-02-14T13:10:24;0.50;;;0.40;;
18716;SDS011;9487;50.892;6.906;2024-02-14T13:12:51;0.80;;;0.40;;
18716;SDS011;9487;50.892;6.906;2024-02-14T13:15:18;0.90;;;0.50;;
18716;SDS011;9487;50.892;6.906;2024-02-14T13:17:47;0.50;;;0.40;;
18716;SDS011;9487;50.892;6.906;2024-02-14T13:20:13;0.80;;;0.50;;
18716;SDS011;9487;50.892;6.906;2024-02-14T13:22:41;1.10;;;0.63;;
18716;SDS011;9487;50.892;6.906;2024-02-14T13:25:08;0.77;;;0.60;;
18716;SDS011;9487;50.892;6.906;2024-02-14T13:27:35;0.70;;;0.70;;
18716;SDS011;9487;50.892;6.906;2024-02-14T13:30:03;0.87;;;0.70;;
18716;SDS011;9487;50.892;6.906;2024-02-14T13:32:32;0.60;;;0.43;;
18716;SDS011;9487;50.892;6.906;2024-02-14T13:35:00;0.50;;;0.50;;
18716;SDS011;9487;50.892;6.906;2024-02-14T13:37:27;2.10;;;0.60;;
18716;SDS011;9487;50.892;6.906;2024-02-14T13:39:54;1.33;;;0.50;;
18716;SDS011;9487;50.892;6.906;2024-02-14T13:42:20;0.60;;;0.40;;
18716;SDS011;9487;50.892;6.906;2024-02-14T13:44:47;2.13;;;0.67;;
18716;SDS011;9487;50.892;6.906;2024-02-14T13:47:17;0.97;;;0.50;;
18716;SDS011;9487;50.892;6.906;2024-02-14T13:49:44;1.10;;;1.00;;
18716;SDS011;9487;50.892;6.906;2024-02-14T13:52:12;1.83;;;1.27;;
18716;SDS011;9487;50.892;6.906;2024-02-14T13:54:40;1.67;;;0.70;;
18716;SDS011;9487;50.892;6.906;2024-02-14T13:57:07;1.27;;;1.00;;
18716;SDS011;9487;50.892;6.906;2024-02-14T13:59:35;1.00;;;0.90;;
18716;SDS011;9487;50.892;6.906;2024-02-14T14:02:02;0.60;;;0.60;;
18716;SDS011;9487;50.892;6.906;2024-02-14T14:04:29;1.53;;;0.80;;
18716;SDS011;9487;50.892;6.906;2024-02-14T14:06:56;1.00;;;0.90;;
18716;SDS011;9487;50.892;6.906;2024-02-14T14:09:25;1.00;;;0.70;;
18716;SDS011;9487;50.892;6.906;2024-02-14T14:11:51;3.40;;;0.80;;
18716;SDS011;9487;50.892;6.906;2024-02-14T14:14:19;1.13;;;0.80;;
18716;SDS011;9487;50.892;6.906;2024-02-14T14:16:46;2.70;;;0.83;;
18716;SDS011;9487;50.892;6.906;2024-02-14T14:19:13;0.83;;;0.63;;
18716;SDS011;9487;50.892;6.906;2024-02-14T14:21:40;0.97;;;0.80;;
18716;SDS011;9487;50.892;6.906;2024-02-14T14:24:06;1.13;;;0.80;;
18716;SDS011;9487;50.892;6.906;2024-02-14T14:26:34;1.83;;;0.63;;
18716;SDS011;9487;50.892;6.906;2024-02-14T14:29:02;1.07;;;0.90;;
18716;SDS011;9487;50.892;6.906;2024-02-14T14:31:30;1.50;;;0.90;;
18716;SDS011;9487;50.892;6.906;2024-02-14T14:33:58;2.10;;;1.33;;
18716;SDS011;9487;50.892;6.906;2024-02-14T14:36:26;1.63;;;0.90;;
18716;SDS011;9487;50.892;6.906;2024-02-14T14:38:53;1.27;;;1.00;;
18716;SDS011;9487;50.892;6.906;2024-02-14T14:41:20;3.43;;;1.30;;
18716;SDS011;9487;50.892;6.906;2024-02-14T14:43:48;1.80;;;1.10;;
18716;SDS011;9487;50.892;6.906;2024-02-14T14:46:15;2.77;;;1.80;;
18716;SDS011;9487;50.892;6.906;2024-02-14T14:48:43;5.47;;;2.27;;
18716;SDS011;9487;50.892;6.906;2024-02-14T14:51:11;3.83;;;1.60;;
18716;SDS011;9487;50.892;6.906;2024-02-14T14:53:39;2.27;;;1.27;;
18716;SDS011;9487;50.892;6.906;2024-02-14T14:56:06;1.70;;;1.20;;
18716;SDS011;9487;50.892;6.906;2024-02-14T14:58:33;2.03;;;1.30;;
18716;SDS011;9487;50.892;6.906;2024-02-14T15:01:02;2.23;;;1.30;;
18716;SDS011;9487;50.892;6.906;2024-02-14T15:03:30;2.10;;;1.23;;
18716;SDS011;9487;50.892;6.906;2024-02-14T15:05:57;1.70;;;1.13;;
18716;SDS011;9487;50.892;6.906;2024-02-14T15:08:24;2.20;;;1.20;;
18716;SDS011;9487;50.892;6.906;2024-02-14T15:10:53;3.20;;;1.40;;